Time;durP1;ratioP1;P1;durP2;ratioP2;P2;SDS_P1;SDS_P2;PMS_P1;PMS_P2;Temp;Humidity;BMP_temperature;BMP_pressure;BME280_temperature;BME280_humidity;BME280_pressure;Samples;Min_cycle;Max_cycle;Signal;HPM_P1;HPM_P2
2021/04/16 00:02:14;;;;;;;2.05;1.70;;;;;;;;;;5092041;28;20119;-47
2021/04/16 00:04:40;;;;;;;4.18;1.92;;;6.70;99.90;;;;;;5127117;27;20047;-47
2021/04/16 00:07:05;;;;;;;3.67;1.77;;;7.00;99.90;;;;;;5134754;27;20023;-48
2021/04/16 00:09:32;;;;;;;2.13;1.70;;;6.90;99.90;;;;;;5134434;27;20488;-46
2021/04/16 00:11:58;;;;;;;3.90;2.00;;;6.90;99.90;;;;;;5134467;27;20051;-44
2021/04/16 00:14:23;;;;;;;1.95;1.55;;;6.90;99.90;;;;;;5134527;27;20054;-46
2021/04/16 00:16:50;;;;;;;2.28;1.70;;;6.90;99.90;;;;;;5134565;28;20023;-48
2021/04/16 00:19:16;;;;;;;3.58;2.10;;;7.00;99.90;;;;;;5132583;28;20039;-45
2021/04/16 00:21:42;;;;;;;3.38;1.98;;;6.90;99.90;;;;;;5134283;27;20401;-45
2021/04/16 00:24:11;;;;;;;5.03;2.22;;;6.80;99.90;;;;;;5138516;27;20027;-44
2021/04/16 00:26:38;;;;;;;3.95;1.83;;;6.80;99.90;;;;;;5045028;28;20082;-45
2021/04/16 00:29:04;;;;;;;2.67;1.85;;;6.80;99.90;;;;;;5095555;28;20131;-47
2021/04/16 00:31:31;;;;;;;2.33;1.60;;;6.90;99.90;;;;;;5095556;28;20126;-47
2021/04/16 00:33:59;;;;;;;2.83;1.92;;;6.80;99.90;;;;;;5095129;28;20040;-44
2021/04/16 00:36:26;;;;;;;2.22;1.70;;;6.70;99.90;;;;;;5046170;28;20047;-44
2021/04/16 00:38:52;;;;;;;2.33;1.70;;;6.60;99.90;;;;;;5095423;28;20036;-45
2021/04/16 00:41:26;;;;;;;3.83;1.95;;;6.60;99.90;;;;;;5011857;28;20127;-45
2021/04/16 00:43:52;;;;;;;2.53;1.90;;;6.60;99.90;;;;;;5095074;28;20111;-43
2021/04/16 00:46:40;;;;;;;3.03;1.88;;;6.70;99.90;;;;;;5095156;28;20043;-45
2021/04/16 00:49:08;;;;;;;2.85;1.80;;;6.60;99.90;;;;;;5094962;28;20028;-46
2021/04/16 00:51:43;;;;;;;2.40;1.70;;;6.60;99.90;;;;;;5034688;28;20053;-44
2021/04/16 00:54:18;;;;;;;1.90;1.55;;;6.60;99.90;;;;;;5034944;28;20085;-46
2021/04/16 00:56:45;;;;;;;2.95;1.85;;;6.60;99.90;;;;;;5043914;28;20087;-45
2021/04/16 00:59:13;;;;;;;2.95;2.00;;;6.50;99.90;;;;;;5095028;28;20089;-45
2021/04/16 01:01:39;;;;;;;3.97;2.13;;;6.50;99.90;;;;;;5094927;28;20143;-45
2021/04/16 01:04:05;;;;;;;2.55;1.75;;;6.60;99.90;;;;;;5077861;28;20260;-47
2021/04/16 01:06:31;;;;;;;6.07;2.70;;;6.50;99.90;;;;;;5061058;28;20594;-46
2021/04/16 01:08:57;;;;;;;3.33;2.10;;;6.50;99.90;;;;;;5094674;28;20410;-44
2021/04/16 01:11:25;;;;;;;3.95;2.10;;;6.50;99.90;;;;;;5077725;28;20048;-44
2021/04/16 01:13:53;;;;;;;3.17;2.25;;;;;;;;;;5094397;28;20115;-47
2021/04/16 01:16:22;;;;;;;4.22;2.22;;;6.50;99.90;;;;;;5094786;28;20450;-43
2021/04/16 01:18:49;;;;;;;3.00;2.03;;;;;;;;;;5094520;28;20085;-46
2021/04/16 01:21:20;;;;;;;4.15;2.90;;;6.10;99.90;;;;;;5091544;28;20105;-46
2021/04/16 01:23:46;;;;;;;6.53;3.50;;;;;;;;;;5137627;27;20027;-43
2021/04/16 01:26:15;;;;;;;4.35;2.97;;;;;;;;;;5137424;27;20083;-47
2021/04/16 01:28:42;;;;;;;6.18;3.15;;;;;;;;;;5137464;27;20023;-44
2021/04/16 01:31:10;;;;;;;4.63;3.08;;;;;;;;;;5137400;27;20038;-45
2021/04/16 01:33:37;;;;;;;4.63;3.20;;;;;;;;;;5135051;27;20055;-47
2021/04/16 01:36:05;;;;;;;4.47;2.90;;;;;;;;;;5135423;27;20062;-47
2021/04/16 01:38:33;;;;;;;4.80;2.88;;;5.00;99.90;;;;;;5137318;27;20034;-46
2021/04/16 01:41:00;;;;;;;5.78;3.20;;;;;;;;;;5137028;27;20165;-45
2021/04/16 01:43:31;;;;;;;3.45;2.40;;;;;;;;;;5137071;27;20099;-44
2021/04/16 01:46:03;;;;;;;6.18;2.80;;;5.40;99.90;;;;;;5137164;27;20038;-47
2021/04/16 01:48:41;;;;;;;5.15;3.25;;;;;;;;;;5137097;27;20031;-45
2021/04/16 01:51:09;;;;;;;4.43;2.47;;;;;;;;;;5137306;27;20114;-46
2021/04/16 01:53:35;;;;;;;5.18;3.25;;;5.70;99.90;;;;;;5136837;27;20075;-46
2021/04/16 01:56:00;;;;;;;8.02;2.92;;;5.80;99.90;;;;;;5136751;27;20382;-47
2021/04/16 01:58:26;;;;;;;4.97;3.17;;;;;;;;;;5117899;27;20043;-45
2021/04/16 02:00:53;;;;;;;6.82;5.47;;;5.50;99.90;;;;;;5136826;27;20458;-45
2021/04/16 02:03:19;;;;;;;9.38;6.35;;;6.00;99.90;;;;;;5136954;27;20039;-46
2021/04/16 02:05:44;;;;;;;6.80;3.90;;;5.90;99.90;;;;;;5136684;27;20024;-46
2021/04/16 02:08:10;;;;;;;5.13;3.42;;;5.80;99.90;;;;;;5083758;27;20179;-45
2021/04/16 02:10:36;;;;;;;5.82;3.53;;;5.80;99.90;;;;;;5117416;27;20477;-44
2021/04/16 02:13:05;;;;;;;7.25;4.10;;;5.90;99.90;;;;;;5136529;27;20493;-46
2021/04/16 02:15:31;;;;;;;6.22;3.92;;;5.80;99.90;;;;;;5100402;27;20054;-44
2021/04/16 02:17:56;;;;;;;8.45;3.63;;;5.80;99.90;;;;;;5117707;27;20043;-47
2021/04/16 02:20:24;;;;;;;5.38;3.45;;;5.80;99.90;;;;;;5136423;27;20075;-47
2021/04/16 02:22:50;;;;;;;7.05;3.95;;;5.80;99.90;;;;;;5135984;27;20027;-48
2021/04/16 02:25:17;;;;;;;6.30;3.50;;;5.80;99.90;;;;;;5136355;27;20076;-51
2021/04/16 02:27:42;;;;;;;5.82;3.50;;;5.70;99.90;;;;;;5136158;27;20031;-49
2021/04/16 02:30:12;;;;;;;7.20;4.20;;;5.70;99.90;;;;;;5136476;27;20392;-44
2021/04/16 02:32:38;;;;;;;8.65;4.55;;;5.70;99.90;;;;;;5137509;27;20016;-47
2021/04/16 02:35:06;;;;;;;6.32;4.05;;;5.70;99.90;;;;;;5136670;27;20359;-45
2021/04/16 02:37:32;;;;;;;7.32;4.13;;;5.60;99.90;;;;;;5049764;27;20039;-44
2021/04/16 02:39:58;;;;;;;7.72;4.43;;;5.70;99.90;;;;;;5135757;27;20051;-46
2021/04/16 02:42:24;;;;;;;8.20;4.43;;;;;;;;;;5082858;27;20039;-46
2021/04/16 02:44:50;;;;;;;11.07;4.43;;;;;;;;;;5135079;27;20023;-44
2021/04/16 02:47:17;;;;;;;8.57;4.72;;;;;;;;;;5133661;27;20397;-45
2021/04/16 02:49:43;;;;;;;7.28;4.15;;;;;;;;;;5135745;27;20027;-47
2021/04/16 02:52:09;;;;;;;8.13;4.30;;;;;;;;;;5135788;27;20400;-47
2021/04/16 02:54:35;;;;;;;7.10;4.40;;;;;;;;;;5135521;27;20480;-44
2021/04/16 02:57:01;;;;;;;6.20;3.97;;;;;;;;;;5135159;27;20031;-47
2021/04/16 02:59:30;;;;;;;6.68;3.88;;;;;;;;;;5135642;27;20031;-45
2021/04/16 03:01:56;;;;;;;6.90;3.90;;;;;;;;;;5135345;27;20046;-47
2021/04/16 03:04:22;;;;;;;6.63;4.38;;;;;;;;;;5135086;27;20023;-46
2021/04/16 03:06:48;;;;;;;5.03;3.70;;;;;;;;;;5116437;27;20035;-44
2021/04/16 03:09:15;;;;;;;5.65;3.55;;;;;;;;;;5135176;27;20027;-48
2021/04/16 03:11:41;;;;;;;5.43;3.63;;;;;;;;;;5135017;27;20393;-46
2021/04/16 03:14:07;;;;;;;5.80;3.72;;;5.50;99.90;;;;;;5114761;28;20028;-47
2021/04/16 03:16:33;;;;;;;7.68;4.05;;;5.50;99.90;;;;;;5095902;28;20051;-47
2021/04/16 03:19:01;;;;;;;8.75;3.63;;;5.60;99.90;;;;;;5133641;27;20030;-43
2021/04/16 03:21:28;;;;;;;4.85;3.78;;;5.60;99.90;;;;;;5134601;27;20038;-44
2021/04/16 03:23:54;;;;;;;8.07;4.03;;;5.60;99.90;;;;;;5115981;27;20038;-44
2021/04/16 03:26:22;;;;;;;4.40;2.90;;;5.60;99.90;;;;;;5135220;27;20106;-46
2021/04/16 03:28:56;;;;;;;7.00;3.60;;;5.50;99.90;;;;;;5135233;27;20426;-47
2021/04/16 03:31:25;;;;;;;6.63;3.53;;;5.50;99.90;;;;;;5134962;27;20525;-46
2021/04/16 03:33:50;;;;;;;8.35;3.65;;;5.60;99.90;;;;;;5133749;27;20030;-46
2021/04/16 03:36:16;;;;;;;5.60;3.53;;;5.60;99.90;;;;;;5134860;27;20027;-48
2021/04/16 03:38:42;;;;;;;4.93;3.00;;;5.60;99.90;;;;;;5134896;27;20051;-46
2021/04/16 03:41:08;;;;;;;4.68;2.80;;;;;;;;;;5134602;27;20389;-46
2021/04/16 03:43:34;;;;;;;4.28;3.13;;;;;;;;;;5134878;27;20027;-46
2021/04/16 03:46:00;;;;;;;6.00;3.30;;;5.30;99.90;;;;;;5134715;27;20042;-45
2021/04/16 03:48:26;;;;;;;4.45;3.03;;;5.50;99.90;;;;;;5134737;27;20122;-47
2021/04/16 03:50:52;;;;;;;6.25;3.25;;;5.60;99.90;;;;;;5081744;27;20032;-48
2021/04/16 03:53:18;;;;;;;4.57;2.90;;;;;;;;;;5134571;27;20433;-44
2021/04/16 03:55:44;;;;;;;4.72;2.90;;;;;;;;;;5134534;27;20033;-46
2021/04/16 03:58:12;;;;;;;2.90;2.38;;;;;;;;;;5134562;27;20031;-44
2021/04/16 04:00:39;;;;;;;4.88;2.75;;;5.50;99.90;;;;;;5134821;27;20043;-48
2021/04/16 04:03:08;;;;;;;4.43;2.70;;;;;;;;;;5135183;27;20051;-45
2021/04/16 04:05:34;;;;;;;6.50;2.75;;;;;;;;;;5134704;27;20110;-45
2021/04/16 04:08:00;;;;;;;11.18;4.47;;;5.50;99.90;;;;;;5134414;27;20023;-44
2021/04/16 04:10:28;;;;;;;13.38;6.38;;;;;;;;;;5098399;28;20093;-45
2021/04/16 04:12:54;;;;;;;4.85;3.10;;;;;;;;;;5134199;27;20067;-48
2021/04/16 04:15:20;;;;;;;5.90;3.20;;;;;;;;;;5115558;28;20075;-47
2021/04/16 04:17:46;;;;;;;4.93;3.33;;;5.30;99.90;;;;;;5134262;27;20023;-44
2021/04/16 04:20:25;;;;;;;5.15;3.47;;;5.50;99.90;;;;;;5134330;27;20359;-48
2021/04/16 04:22:51;;;;;;;7.07;3.90;;;5.60;99.90;;;;;;5134240;27;20430;-47
2021/04/16 04:25:22;;;;;;;3.72;3.05;;;5.20;99.90;;;;;;5134159;27;20084;-46
2021/04/16 04:27:49;;;;;;;3.70;2.88;;;5.30;99.90;;;;;;5134379;27;20147;-45
2021/04/16 04:30:16;;;;;;;4.65;3.13;;;5.50;99.90;;;;;;5134258;27;20034;-46
2021/04/16 04:32:42;;;;;;;4.30;2.70;;;5.70;99.90;;;;;;5134082;27;20030;-46
2021/04/16 04:35:09;;;;;;;6.47;3.30;;;6.00;99.90;;;;;;5115431;28;20047;-45
2021/04/16 04:37:36;;;;;;;5.50;3.30;;;;;;;;;;5134054;27;20479;-45
2021/04/16 04:40:02;;;;;;;4.28;3.35;;;;;;;;;;5134417;27;20076;-44
2021/04/16 04:42:28;;;;;;;6.18;3.75;;;;;;;;;;5133982;27;20035;-45
2021/04/16 04:44:54;;;;;;;5.05;2.95;;;;;;;;;;5134216;27;20055;-46
2021/04/16 04:47:20;;;;;;;6.13;3.70;;;;;;;;;;5133955;27;20027;-48
2021/04/16 04:49:46;;;;;;;7.20;3.80;;;6.50;99.90;;;;;;5134301;27;20072;-48
2021/04/16 04:52:18;;;;;;;6.20;3.55;;;6.60;99.90;;;;;;5115277;28;20367;-44
2021/04/16 04:54:47;;;;;;;5.15;3.60;;;6.60;99.90;;;;;;5134004;27;20475;-44
2021/04/16 04:57:13;;;;;;;4.63;3.03;;;6.60;99.90;;;;;;5134129;27;20056;-46
2021/04/16 04:59:38;;;;;;;5.35;3.38;;;6.60;99.90;;;;;;5134174;27;20053;-47
2021/04/16 05:02:04;;;;;;;11.00;4.40;;;6.60;99.90;;;;;;5133956;27;20135;-46
2021/04/16 05:04:30;;;;;;;5.35;3.55;;;6.60;99.90;;;;;;5115093;28;20505;-49
2021/04/16 05:06:56;;;;;;;6.40;3.80;;;6.60;99.90;;;;;;5134065;28;20023;-44
2021/04/16 05:09:22;;;;;;;4.78;3.92;;;6.60;99.90;;;;;;5136247;27;20031;-44
2021/04/16 05:11:47;;;;;;;6.45;3.90;;;6.60;99.90;;;;;;5137467;27;20070;-45
2021/04/16 05:14:13;;;;;;;6.07;3.90;;;6.70;99.90;;;;;;5116864;27;20027;-44
2021/04/16 05:16:39;;;;;;;5.05;3.63;;;;;;;;;;5136381;27;20105;-46
2021/04/16 05:19:05;;;;;;;5.45;4.07;;;6.70;99.90;;;;;;5135577;27;20034;-47
2021/04/16 05:21:33;;;;;;;7.20;4.10;;;6.90;99.90;;;;;;5135390;27;20054;-48
2021/04/16 05:23:59;;;;;;;5.63;3.50;;;7.00;99.90;;;;;;5136365;27;20035;-48
2021/04/16 05:26:25;;;;;;;7.40;4.05;;;7.00;99.90;;;;;;5135881;27;20106;-45
2021/04/16 05:28:51;;;;;;;4.05;3.30;;;;;;;;;;5116432;27;20035;-46
2021/04/16 05:31:17;;;;;;;5.72;3.88;;;7.10;99.90;;;;;;5134520;27;20023;-45
2021/04/16 05:33:42;;;;;;;7.65;4.97;;;7.20;99.90;;;;;;5135652;27;20030;-46
2021/04/16 05:36:08;;;;;;;6.13;3.72;;;7.10;99.90;;;;;;5135768;27;20031;-47
2021/04/16 05:38:34;;;;;;;9.05;3.90;;;7.20;99.90;;;;;;5136007;27;20478;-48
2021/04/16 05:41:00;;;;;;;7.13;4.18;;;7.30;99.90;;;;;;5136840;27;20035;-48
2021/04/16 05:43:26;;;;;;;7.25;3.53;;;;;;;;;;5117805;27;20388;-47
2021/04/16 05:45:52;;;;;;;7.85;4.95;;;;;;;;;;5137147;27;20079;-48
2021/04/16 05:48:18;;;;;;;5.68;4.00;;;;;;;;;;5137092;27;20023;-50
2021/04/16 05:50:44;;;;;;;6.28;3.92;;;;;;;;;;5136773;27;20034;-46
2021/04/16 05:53:10;;;;;;;5.47;4.55;;;;;;;;;;5137008;27;20110;-46
2021/04/16 05:55:36;;;;;;;4.65;3.80;;;7.80;99.90;;;;;;5117919;27;20115;-44
2021/04/16 05:58:02;;;;;;;7.45;4.20;;;7.80;99.90;;;;;;5136993;27;20422;-46
2021/04/16 06:00:28;;;;;;;6.32;4.43;;;;;;;;;;5117625;27;20027;-46
2021/04/16 06:02:54;;;;;;;6.45;3.75;;;;;;;;;;5136899;27;20027;-47
2021/04/16 06:05:21;;;;;;;5.65;4.25;;;;;;;;;;5135091;27;20589;-46
2021/04/16 06:07:48;;;;;;;6.68;3.92;;;;;;;;;;5137224;27;20040;-55
2021/04/16 06:10:16;;;;;;;4.43;3.10;;;;;;;;;;5139235;27;20027;-44
2021/04/16 06:12:43;;;;;;;4.88;3.20;;;;;;;;;;5139469;27;20070;-62
2021/04/16 06:15:13;;;;;;;5.68;3.42;;;;;;;;;;5137399;27;20062;-47
2021/04/16 06:17:40;;;;;;;3.10;2.47;;;;;;;;;;5137280;27;20500;-46
2021/04/16 06:20:07;;;;;;;5.47;2.85;;;8.00;99.90;;;;;;5136598;27;20494;-44
2021/04/16 06:22:33;;;;;;;7.20;4.10;;;;;;;;;;5113551;28;20048;-44
2021/04/16 06:24:59;;;;;;;5.32;3.40;;;7.80;99.90;;;;;;5113517;28;20035;-46
2021/04/16 06:27:25;;;;;;;3.97;3.15;;;8.10;99.90;;;;;;5113462;28;20027;-45
2021/04/16 06:29:51;;;;;;;4.00;2.83;;;8.30;99.90;;;;;;5113550;28;20080;-45
2021/04/16 06:32:20;;;;;;;4.00;3.13;;;8.20;99.90;;;;;;5113842;28;20036;-48
2021/04/16 06:34:45;;;;;;;5.32;3.70;;;8.10;99.90;;;;;;5113424;28;20038;-45
2021/04/16 06:37:14;;;;;;;3.97;2.88;;;8.50;99.90;;;;;;5113583;28;20410;-48
2021/04/16 06:39:41;;;;;;;4.40;3.20;;;8.50;99.90;;;;;;5113387;28;20027;-47
2021/04/16 06:42:17;;;;;;;5.45;3.13;;;;;;;;;;5113124;28;20193;-45
2021/04/16 06:44:46;;;;;;;5.20;2.95;;;8.90;99.90;;;;;;5113538;28;20039;-46
2021/04/16 06:47:15;;;;;;;5.07;3.67;;;;;;;;;;5113323;28;20034;-47
2021/04/16 06:49:41;;;;;;;4.10;3.28;;;9.10;99.90;;;;;;5113049;28;20040;-44
2021/04/16 06:52:27;;;;;;;4.60;3.22;;;8.90;99.90;;;;;;5079144;28;20047;-47
2021/04/16 06:54:59;;;;;;;5.20;3.38;;;;;;;;;;5135940;27;20019;-46
2021/04/16 06:57:41;;;;;;;5.75;3.67;;;8.90;99.90;;;;;;5135778;27;20027;-47
2021/04/16 07:00:41;;;;;;;4.47;3.15;;;9.00;99.90;;;;;;5116920;27;20045;-47
2021/04/16 07:03:27;;;;;;;6.07;4.45;;;9.20;99.90;;;;;;5121303;27;20052;-49
2021/04/16 07:05:58;;;;;;;5.68;4.47;;;9.10;99.90;;;;;;5135136;27;20427;-46
2021/04/16 07:08:40;;;;;;;7.10;4.40;;;8.70;99.90;;;;;;5116631;27;20123;-45
2021/04/16 07:11:26;;;;;;;11.95;7.90;;;8.90;99.90;;;;;;5135443;27;20047;-45
2021/04/16 07:13:52;;;;;;;6.63;4.32;;;;;;;;;;5135481;27;20027;-45
2021/04/16 07:16:22;;;;;;;5.13;3.92;;;9.00;99.90;;;;;;5135779;27;20027;-47
2021/04/16 07:18:53;;;;;;;10.30;4.50;;;9.10;99.90;;;;;;5135301;27;20030;-46
2021/04/16 07:21:20;;;;;;;12.55;8.20;;;;;;;;;;5116540;27;20070;-46
2021/04/16 07:23:49;;;;;;;6.38;3.78;;;;;;;;;;5134660;27;20050;-47
2021/04/16 07:26:21;;;;;;;16.00;10.05;;;;;;;;;;5134781;27;20056;-47
2021/04/16 07:28:48;;;;;;;;;;;;;;;;;;5132775;27;20085;-46
2021/04/16 07:31:33;;;;;;;12.13;7.10;;;;;;;;;;5133170;27;19903;-45
2021/04/16 07:34:00;;;;;;;6.75;4.53;;;;;;;;;;5134931;27;20023;-44
2021/04/16 07:36:43;;;;;;;7.57;4.43;;;;;;;;;;5134931;27;20023;-46
2021/04/16 07:39:16;;;;;;;5.32;4.05;;;;;;;;;;5134777;27;20454;-45
2021/04/16 07:41:56;;;;;;;7.13;4.75;;;;;;;;;;5134724;27;20069;-47
2021/04/16 07:44:22;;;;;;;6.57;3.78;;;;;;;;;;5134974;27;20046;-46
2021/04/16 07:46:59;;;;;;;6.45;3.60;;;;;;;;;;5134956;27;20454;-46
2021/04/16 07:49:28;;;;;;;6.25;4.18;;;;;;;;;;5134987;27;20145;-47
2021/04/16 07:51:57;;;;;;;4.88;3.45;;;;;;;;;;5134941;27;20109;-45
2021/04/16 07:54:30;;;;;;;8.70;5.22;;;;;;;;;;5134710;27;20030;-45
2021/04/16 07:57:05;;;;;;;11.25;6.32;;;;;;;;;;5133129;27;20054;-44
2021/04/16 07:59:31;;;;;;;5.38;3.60;;;;;;;;;;5098777;27;20035;-48
2021/04/16 08:01:57;;;;;;;4.45;3.33;;;10.60;99.90;;;;;;5134369;27;20039;-45
2021/04/16 08:04:35;;;;;;;5.68;3.53;;;10.40;99.90;;;;;;5064978;28;20027;-46
2021/04/16 08:07:17;;;;;;;7.88;4.40;;;;;;;;;;5133498;28;20027;-45
2021/04/16 08:09:43;;;;;;;9.80;5.05;;;10.90;99.90;;;;;;5134632;27;20106;-44
2021/04/16 08:12:09;;;;;;;5.53;3.03;;;10.70;99.90;;;;;;5115574;28;20142;-44
2021/04/16 08:14:38;;;;;;;7.03;3.92;;;10.70;99.90;;;;;;5134408;28;20023;-45
2021/04/16 08:17:19;;;;;;;4.20;2.88;;;11.20;99.90;;;;;;5134525;27;20035;-49
2021/04/16 08:19:45;;;;;;;12.43;5.95;;;11.20;99.90;;;;;;5134284;28;20489;-48
2021/04/16 08:22:11;;;;;;;4.18;2.78;;;;;;;;;;5098776;28;20046;-45
2021/04/16 08:24:49;;;;;;;4.70;3.10;;;11.80;99.90;;;;;;5133933;27;20023;-48
2021/04/16 08:27:24;;;;;;;81.95;21.10;;;11.50;99.90;;;;;;5134144;27;20549;-49
2021/04/16 08:30:19;;;;;;;35.25;10.45;;;11.80;99.90;;;;;;5134491;27;20027;-47
2021/04/16 08:32:50;;;;;;;51.05;13.90;;;;;;;;;;5134262;28;20106;-47
2021/04/16 08:35:24;;;;;;;4.13;2.65;;;12.20;99.90;;;;;;5134283;28;20088;-46
2021/04/16 08:38:11;;;;;;;18.55;7.15;;;;;;;;;;5134102;28;20072;-47
2021/04/16 08:40:42;;;;;;;3.60;2.60;;;;;;;;;;5134062;27;20106;-45
2021/04/16 08:43:11;;;;;;;3.78;2.80;;;;;;;;;;5134840;27;20023;-45
2021/04/16 08:45:39;;;;;;;3.95;2.80;;;;;;;;;;5137851;27;20500;-46
2021/04/16 08:48:22;;;;;;;4.65;2.80;;;13.00;98.30;;;;;;5138284;27;20024;-45
2021/04/16 08:51:00;;;;;;;3.30;2.22;;;13.10;97.30;;;;;;5105408;27;20114;-46
2021/04/16 08:53:26;;;;;;;2.95;2.15;;;;;;;;;;5138038;27;20027;-47
2021/04/16 08:55:52;;;;;;;3.47;2.47;;;;;;;;;;5137942;27;20031;-46
2021/04/16 08:58:39;;;;;;;12.30;4.88;;;13.80;99.90;;;;;;5138068;27;20374;-45
2021/04/16 09:01:08;;;;;;;6.63;3.78;;;;;;;;;;5137759;27;20032;-47
2021/04/16 09:03:52;;;;;;;10.00;3.72;;;12.70;93.90;;;;;;5137843;27;20050;-47
2021/04/16 09:06:38;;;;;;;3.83;2.50;;;12.80;95.40;;;;;;5137628;27;20028;-46
2021/04/16 09:09:06;;;;;;;9.77;4.80;;;12.90;95.10;;;;;;5054312;28;20094;-47
2021/04/16 09:11:44;;;;;;;16.98;8.10;;;13.30;96.20;;;;;;5054069;28;20103;-45
2021/04/16 09:14:32;;;;;;;11.25;5.05;;;13.00;95.10;;;;;;5054368;28;20060;-45
2021/04/16 09:17:05;;;;;;;19.20;8.50;;;13.10;96.40;;;;;;5041950;28;20115;-46
2021/04/16 09:19:31;;;;;;;7.15;4.15;;;13.00;94.40;;;;;;5054421;28;20100;-45
2021/04/16 09:22:05;;;;;;;4.07;3.03;;;13.10;93.80;;;;;;5054067;28;20040;-46
2021/04/16 09:24:53;;;;;;;2.75;1.95;;;13.10;93.90;;;;;;5054088;28;20468;-44
2021/04/16 09:27:24;;;;;;;5.72;3.35;;;12.80;92.70;;;;;;5054173;28;20428;-45
2021/04/16 09:30:00;;;;;;;9.73;5.40;;;12.60;93.50;;;;;;5054168;28;20037;-44
2021/04/16 09:32:46;;;;;;;4.05;2.65;;;12.70;93.60;;;;;;5054020;28;20025;-47
2021/04/16 09:35:37;;;;;;;3.22;2.70;;;12.70;92.10;;;;;;5053888;28;20066;-46
2021/04/16 09:38:21;;;;;;;7.22;3.70;;;13.40;92.70;;;;;;5053880;28;20028;-45
2021/04/16 09:41:25;;;;;;;4.43;2.53;;;13.20;92.40;;;;;;5053439;28;20064;-45
2021/04/16 09:44:20;;;;;;;3.70;2.38;;;13.30;94.30;;;;;;5053798;28;20404;-45
2021/04/16 09:46:48;;;;;;;7.13;4.05;;;13.20;91.20;;;;;;5049338;28;20518;-45
2021/04/16 09:49:23;;;;;;;4.63;3.15;;;13.40;94.00;;;;;;5074012;28;20115;-46
2021/04/16 09:51:50;;;;;;;5.90;4.43;;;13.30;91.00;;;;;;5074163;28;20086;-45
2021/04/16 09:54:36;;;;;;;6.45;4.03;;;13.50;99.10;;;;;;5073150;28;20035;-45
2021/04/16 09:57:02;;;;;;;6.53;3.00;;;12.80;95.00;;;;;;5073203;28;20036;-46
2021/04/16 09:59:35;;;;;;;2.42;1.85;;;;;;;;;;5073418;28;20028;-46
2021/04/16 10:02:10;;;;;;;3.33;2.40;;;12.40;99.60;;;;;;5073760;28;20045;-47
2021/04/16 10:04:46;;;;;;;3.05;2.10;;;;;;;;;;5073231;28;20086;-45
2021/04/16 10:07:13;;;;;;;4.72;2.97;;;13.60;92.20;;;;;;5073795;28;20064;-46
2021/04/16 10:09:40;;;;;;;4.45;2.08;;;;;;;;;;5073141;28;20051;-44
2021/04/16 10:12:14;;;;;;;2.65;1.98;;;;;;;;;;5073209;28;20120;-44
2021/04/16 10:14:40;;;;;;;2.75;2.00;;;14.40;87.50;;;;;;5073486;28;20040;-44
2021/04/16 10:17:06;;;;;;;3.35;2.33;;;14.40;87.00;;;;;;5072767;28;20462;-47
2021/04/16 10:19:36;;;;;;;3.80;2.70;;;14.40;88.80;;;;;;5039707;28;20098;-45
2021/04/16 10:22:29;;;;;;;5.40;3.22;;;13.80;85.60;;;;;;5073107;28;20080;-49
2021/04/16 12:39:55;;;;;;;4.68;2.92;;;14.50;91.00;;;;;;5117817;28;20427;-45
2021/04/16 12:42:21;;;;;;;3.33;2.45;;;14.80;81.50;;;;;;5117506;27;20039;-42
2021/04/16 12:44:50;;;;;;;11.00;4.03;;;14.70;78.90;;;;;;5081982;28;20040;-42
2021/04/16 12:47:24;;;;;;;51.03;12.65;;;14.20;84.80;;;;;;5118239;28;20020;-41
2021/04/16 12:49:51;;;;;;;28.38;7.82;;;14.30;80.90;;;;;;5117526;28;20062;-43
2021/04/16 12:52:19;;;;;;;4.95;3.30;;;14.50;79.00;;;;;;5117620;28;20020;-43
2021/04/16 12:54:49;;;;;;;8.13;3.47;;;14.70;77.80;;;;;;5117494;28;20085;-41
2021/04/16 12:57:17;;;;;;;36.15;14.30;;;;;;;;;;5109620;27;20429;-42
2021/04/16 12:59:43;;;;;;;7.28;3.80;;;;;;;;;;5127074;27;20057;-43
2021/04/16 13:02:28;;;;;;;4.18;2.78;;;13.60;94.60;;;;;;5126794;27;20036;-44
2021/04/16 13:04:56;;;;;;;85.28;24.77;;;;;;;;;;5127275;27;20023;-43
2021/04/16 13:07:22;;;;;;;4.97;2.90;;;;;;;;;;5126791;27;20037;-42
2021/04/16 13:09:48;;;;;;;4.60;2.97;;;12.80;79.80;;;;;;5126687;27;20102;-43
2021/04/16 13:12:14;;;;;;;29.20;12.68;;;13.20;81.50;;;;;;5126731;27;20114;-43
2021/04/16 13:14:40;;;;;;;4.88;3.60;;;13.40;80.10;;;;;;5126480;27;20027;-43
2021/04/16 13:17:06;;;;;;;5.45;3.00;;;;;;;;;;5126079;27;20034;-42
2021/04/16 13:19:37;;;;;;;13.85;7.18;;;;;;;;;;5126106;27;20027;-42
2021/04/16 13:22:05;;;;;;;7.03;3.38;;;;;;;;;;5125968;27;20031;-42
2021/04/16 13:24:32;;;;;;;4.60;3.00;;;;;;;;;;5126015;27;20023;-41
2021/04/16 13:26:59;;;;;;;3.03;2.70;;;;;;;;;;5126010;27;20079;-43
2021/04/16 13:29:25;;;;;;;3.67;2.45;;;13.60;94.90;;;;;;5132441;27;20386;-42
2021/04/16 13:31:51;;;;;;;4.43;3.00;;;13.70;78.60;;;;;;5090668;27;20030;-41
2021/04/16 13:34:17;;;;;;;4.78;3.20;;;13.70;80.00;;;;;;5107477;27;20081;-44
2021/04/16 13:36:43;;;;;;;4.32;2.55;;;13.60;81.40;;;;;;5126546;27;20031;-42
2021/04/16 13:39:09;;;;;;;3.95;2.42;;;13.60;78.90;;;;;;5130717;27;20035;-41
2021/04/16 13:41:36;;;;;;;4.80;3.33;;;13.70;80.70;;;;;;5126430;27;20053;-42
2021/04/16 13:44:03;;;;;;;4.32;2.88;;;13.50;79.00;;;;;;5126367;27;20064;-41
2021/04/16 13:46:31;;;;;;;3.72;2.67;;;13.40;78.60;;;;;;5126310;27;20023;-41
2021/04/16 13:48:59;;;;;;;71.25;18.70;;;13.40;79.70;;;;;;5090136;27;20031;-43
2021/04/16 13:51:25;;;;;;;16.98;6.10;;;13.80;79.10;;;;;;5090830;27;20031;-43
2021/04/16 13:53:52;;;;;;;5.13;3.63;;;13.50;80.00;;;;;;5125394;27;20366;-44
2021/04/16 13:56:18;;;;;;;6.72;3.50;;;13.60;78.50;;;;;;5125253;27;20189;-41
2021/04/16 13:58:44;;;;;;;4.95;2.85;;;13.90;79.00;;;;;;5125539;27;20050;-43
2021/04/16 14:01:11;;;;;;;5.82;2.92;;;13.70;80.30;;;;;;5080914;27;20157;-42
2021/04/16 14:03:40;;;;;;;73.43;17.90;;;13.90;82.80;;;;;;5126075;27;20060;-41
2021/04/16 14:06:26;;;;;;;146.60;33.83;;;14.00;79.70;;;;;;5125855;27;20042;-40
2021/04/16 14:09:06;;;;;;;14.43;6.32;;;14.10;79.30;;;;;;5127172;27;20024;-43
2021/04/16 14:11:33;;;;;;;28.95;9.10;;;;;;;;;;5126284;27;20043;-43
2021/04/16 14:14:02;;;;;;;7.80;3.72;;;14.30;99.00;;;;;;5125122;27;20051;-44
2021/04/16 14:16:36;;;;;;;7.63;4.57;;;14.70;81.00;;;;;;5068623;28;20028;-44
2021/04/16 14:19:08;;;;;;;4.43;2.70;;;14.50;76.10;;;;;;5103458;28;20031;-41
2021/04/16 14:21:39;;;;;;;14.45;6.63;;;14.80;77.80;;;;;;5099740;28;20050;-40
2021/04/16 14:24:08;;;;;;;7.00;3.70;;;14.20;74.90;;;;;;5102153;28;20608;-42
2021/04/16 14:26:34;;;;;;;3.75;2.63;;;14.20;94.60;;;;;;5061617;28;20029;-43
2021/04/16 14:29:00;;;;;;;12.18;4.90;;;14.10;76.20;;;;;;5061728;28;20025;-43
2021/04/16 14:31:26;;;;;;;30.55;11.48;;;14.30;78.90;;;;;;5038750;28;20390;-43
2021/04/16 14:33:52;;;;;;;5.10;3.30;;;14.70;92.90;;;;;;5062562;28;20024;-43
2021/04/16 14:36:18;;;;;;;9.25;5.65;;;14.40;91.00;;;;;;5028699;28;20041;-42
2021/04/16 14:38:43;;;;;;;5.78;3.50;;;14.70;90.30;;;;;;5062181;28;20525;-42
2021/04/16 14:41:11;;;;;;;3.75;2.70;;;14.40;88.70;;;;;;5027346;28;20073;-43
2021/04/16 14:43:37;;;;;;;5.63;2.67;;;14.10;74.60;;;;;;5061457;28;20106;-42
2021/04/16 14:46:03;;;;;;;3.88;2.70;;;14.10;87.80;;;;;;5028059;28;20078;-43
2021/04/16 14:48:31;;;;;;;4.72;3.45;;;14.10;78.40;;;;;;5080002;28;20077;-44
2021/04/16 14:51:02;;;;;;;4.43;2.80;;;14.30;74.50;;;;;;5072933;28;20032;-44
2021/04/16 14:53:42;;;;;;;7.75;4.03;;;14.60;87.30;;;;;;5082379;28;20371;-43
2021/04/16 14:56:10;;;;;;;2.75;2.30;;;14.40;76.00;;;;;;5082937;28;20107;-43
2021/04/16 14:58:40;;;;;;;3.92;3.00;;;14.30;73.50;;;;;;5117732;27;20028;-44
2021/04/16 15:01:08;;;;;;;4.30;2.72;;;14.20;73.50;;;;;;5105242;27;20127;-43
2021/04/16 15:03:34;;;;;;;6.68;3.30;;;14.40;74.90;;;;;;5122172;27;20122;-43
2021/04/16 15:06:06;;;;;;;4.38;3.00;;;14.60;92.50;;;;;;5113519;27;20118;-42
2021/04/16 15:08:40;;;;;;;;;;;14.90;92.60;;;;;;5124435;27;20101;-42
2021/04/16 15:11:09;;;;;;;6.55;3.72;;;14.60;76.00;;;;;;5123716;27;20290;-44
2021/04/16 15:13:39;;;;;;;7.70;4.68;;;14.40;75.20;;;;;;5123951;27;20016;-42
2021/04/16 15:16:14;;;;;;;9.32;4.72;;;14.30;74.10;;;;;;5114848;27;20084;-43
2021/04/16 15:18:40;;;;;;;6.32;3.95;;;14.20;75.90;;;;;;5124619;27;20361;-41
2021/04/16 15:21:12;;;;;;;6.40;3.65;;;14.40;75.00;;;;;;5124468;27;20021;-43
2021/04/16 15:23:38;;;;;;;;;;;14.40;74.30;;;;;;5089076;27;20031;-44
2021/04/16 15:26:04;;;;;;;5.75;3.20;;;14.20;74.80;;;;;;5124476;27;19911;-41
2021/04/16 15:28:46;;;;;;;8.25;4.15;;;14.00;86.10;;;;;;5124111;27;20028;-41
2021/04/16 15:31:27;;;;;;;5.68;4.07;;;14.00;75.10;;;;;;5124922;27;20424;-42
2021/04/16 15:48:00;;;;;;;8.82;4.65;;;13.90;99.90;;;;;;4990155;28;20069;-44
2021/04/16 15:50:31;;;;;;;6.15;3.38;;;13.70;89.90;;;;;;4990099;28;20034;-44
2021/04/16 15:52:57;;;;;;;6.75;4.22;;;13.80;93.20;;;;;;4963826;28;20062;-42
2021/04/16 15:55:23;;;;;;;72.47;20.60;;;;;;;;;;4991456;28;20030;-44
2021/04/16 15:57:49;;;;;;;29.20;9.60;;;;;;;;;;4959239;28;20433;-53
2021/04/16 16:00:30;;;;;;;9.05;4.93;;;14.00;98.00;;;;;;4991497;28;20065;-45
2021/04/16 16:02:56;;;;;;;13.20;6.75;;;14.00;94.40;;;;;;4990755;28;20541;-43
2021/04/16 16:05:22;;;;;;;52.70;16.83;;;;;;;;;;5023809;28;20051;-42